createdAt,value
2022-08-26T00:00:08.369Z,100335.41
2022-08-26T00:02:37.596Z,100330.53
2022-08-26T00:05:07.500Z,100328.59
2022-08-26T00:07:35.997Z,100330.81
2022-08-26T00:10:06.054Z,100330.81
2022-08-26T00:12:36.219Z,100338.44
2022-08-26T00:15:06.317Z,100332.44
2022-08-26T00:17:34.332Z,100329.44
2022-08-26T00:20:02.541Z,100332.47
2022-08-26T00:22:32.036Z,100330.00
2022-08-26T00:24:59.627Z,100332.75
2022-08-26T00:27:27.217Z,100338.97
2022-08-26T00:29:55.911Z,100332.19
2022-08-26T00:32:24.447Z,100332.44
2022-08-26T00:34:53.722Z,100327.03
2022-08-26T00:37:22.372Z,100322.66
2022-08-26T00:39:52.311Z,100322.69
2022-08-26T00:42:20.982Z,100327.84
2022-08-26T00:44:48.708Z,100328.63
2022-08-26T00:47:24.388Z,100325.41
2022-08-26T00:49:52.548Z,100321.34
2022-08-26T00:52:22.164Z,100318.34
2022-08-26T00:54:55.030Z,100323.22
2022-08-26T00:57:23.577Z,100322.66
2022-08-26T00:59:55.193Z,100328.91
2022-08-26T01:02:22.809Z,100328.69
2022-08-26T01:04:55.911Z,100328.38
2022-08-26T01:07:25.294Z,100328.13
2022-08-26T01:09:54.702Z,100327.56
2022-08-26T01:12:23.007Z,100321.88
2022-08-26T01:14:50.705Z,100326.22
2022-08-26T01:17:18.629Z,100321.88
2022-08-26T01:19:50.579Z,100316.44
2022-08-26T01:22:20.714Z,100318.34
2022-08-26T01:24:50.060Z,100328.94
2022-08-26T01:27:19.876Z,100325.41
2022-08-26T01:29:49.742Z,100318.88
2022-08-26T01:32:22.053Z,100315.88
2022-08-26T01:34:51.009Z,100319.16
2022-08-26T01:37:21.261Z,100327.59
2022-08-26T01:39:53.227Z,100327.03
2022-08-26T01:42:22.584Z,100331.09
2022-08-26T01:44:54.143Z,100327.84
2022-08-26T01:47:23.111Z,100334.09
2022-08-26T01:49:53.708Z,100335.72
2022-08-26T01:52:27.584Z,100334.09
2022-08-26T01:54:58.828Z,100340.88
2022-08-26T01:57:27.304Z,100335.72
2022-08-26T02:00:00.597Z,100328.66
2022-08-26T02:02:28.598Z,100324.28
2022-08-26T02:04:59.805Z,100324.03
2022-08-26T02:07:28.017Z,100328.94
2022-08-26T02:09:57.001Z,100330.56
2022-08-26T02:12:25.879Z,100332.19
2022-08-26T02:14:55.424Z,100334.63
2022-08-26T02:17:27.654Z,100336.28
2022-08-26T02:19:55.695Z,100338.16
2022-08-26T02:22:24.967Z,100335.72
2022-08-26T02:24:54.322Z,100333.81
2022-08-26T02:27:25.441Z,100334.63
2022-08-26T02:29:58.021Z,100328.66
2022-08-26T02:32:25.945Z,100335.66
2022-08-26T02:34:54.699Z,100329.09
2022-08-26T02:37:22.516Z,100331.56
2022-08-26T02:39:50.651Z,100338.84
2022-08-26T02:42:19.737Z,100338.31
2022-08-26T02:44:48.675Z,100330.13
2022-08-26T02:47:16.877Z,100333.94
2022-08-26T02:49:47.285Z,100345.59
2022-08-26T02:52:15.408Z,100343.66
2022-08-26T02:54:42.961Z,100349.59
2022-08-26T02:57:13.002Z,100347.22
2022-08-26T02:59:40.554Z,100343.69
2022-08-26T03:02:10.878Z,100348.28
2022-08-26T03:04:39.028Z,100336.00
2022-08-26T03:07:07.290Z,100335.75
2022-08-26T03:09:34.865Z,100335.44
2022-08-26T03:12:02.961Z,100326.78
2022-08-26T03:14:30.489Z,100329.50
2022-08-26T03:16:58.017Z,100325.72
2022-08-26T03:19:27.714Z,100331.91
2022-08-26T03:21:57.964Z,100325.97
2022-08-26T03:24:26.271Z,100327.25
2022-08-26T03:26:53.808Z,100328.94
2022-08-26T03:29:39.164Z,100329.38
2022-08-26T03:32:06.889Z,100329.34
2022-08-26T03:34:36.252Z,100331.88
2022-08-26T03:37:03.924Z,100321.06
2022-08-26T03:39:32.596Z,100327.25
2022-08-26T03:42:00.216Z,100331.00
2022-08-26T03:44:27.788Z,100332.34
2022-08-26T03:46:55.647Z,100321.28
2022-08-26T03:49:23.210Z,100319.75
2022-08-26T03:51:52.051Z,100326.25
2022-08-26T03:54:19.628Z,100323.00
2022-08-26T03:56:47.510Z,100324.06
2022-08-26T03:59:15.089Z,100319.09
2022-08-26T04:01:43.040Z,100320.16
2022-08-26T04:04:10.690Z,100318.56
2022-08-26T04:06:44.725Z,100318.09
2022-08-26T04:09:15.859Z,100330.28
2022-08-26T04:11:45.001Z,100329.94
2022-08-26T04:14:17.578Z,100320.16
2022-08-26T04:16:48.204Z,100324.25
2022-08-26T04:19:16.566Z,100318.63
2022-08-26T04:21:45.157Z,100317.19
2022-08-26T04:24:16.722Z,100312.88
2022-08-26T04:26:45.608Z,100318.09
2022-08-26T04:29:15.328Z,100317.03
2022-08-26T04:31:43.124Z,100316.47
2022-08-26T04:34:11.396Z,100323.00
2022-08-26T04:36:43.024Z,100324.94
2022-08-26T04:39:14.139Z,100322.97
2022-08-26T04:41:43.082Z,100324.00
2022-08-26T04:44:10.894Z,100326.22
2022-08-26T04:46:43.727Z,100321.22
2022-08-26T04:49:12.218Z,100326.63
2022-08-26T04:51:40.633Z,100330.09
2022-08-26T04:54:08.637Z,100325.16
2022-08-26T04:56:37.883Z,100324.13
2022-08-26T04:59:16.583Z,100331.94
2022-08-26T05:01:45.260Z,100333.06
2022-08-26T05:04:12.949Z,100336.81
2022-08-26T05:06:44.092Z,100341.00
2022-08-26T05:09:11.923Z,100333.63
2022-08-26T05:11:39.425Z,100348.78
2022-08-26T05:14:08.720Z,100351.50
2022-08-26T05:16:36.212Z,100355.31
2022-08-26T05:19:04.205Z,100343.06
2022-08-26T05:21:32.187Z,100344.59
2022-08-26T05:24:00.905Z,100346.75
2022-08-26T05:26:30.492Z,100342.78
2022-08-26T05:28:58.502Z,100351.75
2022-08-26T05:31:29.244Z,100348.78
2022-08-26T05:33:57.666Z,100358.78
2022-08-26T05:36:28.571Z,100355.81
2022-08-26T05:38:56.720Z,100358.78
2022-08-26T05:41:36.336Z,100357.69
2022-08-26T05:44:06.702Z,100349.00
2022-08-26T05:46:36.530Z,100352.53
2022-08-26T05:49:05.039Z,100360.66
2022-08-26T05:51:35.092Z,100365.28
2022-08-26T05:54:03.748Z,100361.50
2022-08-26T05:56:31.421Z,100371.31
2022-08-26T05:58:59.790Z,100370.16
2022-08-26T06:01:28.522Z,100369.13
2022-08-26T06:04:02.001Z,100362.56
2022-08-26T06:06:31.891Z,100367.47
2022-08-26T06:09:01.178Z,100378.03
2022-08-26T06:11:30.495Z,100364.75
2022-08-26T06:14:03.918Z,100369.34
2022-08-26T06:16:34.533Z,100367.41
2022-08-26T06:19:10.427Z,100370.69
2022-08-26T06:21:40.420Z,100368.59
2022-08-26T06:24:27.646Z,100377.25
2022-08-26T06:26:57.431Z,100372.09
2022-08-26T06:29:27.009Z,100378.84
2022-08-26T06:31:56.165Z,100378.31
2022-08-26T06:34:26.657Z,100382.09
2022-08-26T06:36:59.595Z,100382.31
2022-08-26T06:39:27.424Z,100390.38
2022-08-26T06:41:58.911Z,100397.19
2022-08-26T06:44:27.172Z,100397.81
2022-08-26T06:46:54.930Z,100396.56
2022-08-26T06:49:26.606Z,100394.66
2022-08-26T06:51:58.431Z,100392.50
2022-08-26T06:54:26.517Z,100394.50
2022-08-26T06:56:55.835Z,100386.34
2022-08-26T06:59:24.059Z,100388.84
2022-08-26T07:01:52.602Z,100380.72
2022-08-26T07:04:23.376Z,100384.31
2022-08-26T07:06:53.548Z,100384.59
2022-08-26T07:09:23.826Z,100388.41
2022-08-26T07:11:52.229Z,100387.03
2022-08-26T07:14:21.654Z,100380.00
2022-08-26T07:16:49.691Z,100396.03
2022-08-26T07:19:31.052Z,100390.88
2022-08-26T07:21:59.914Z,100378.94
2022-08-26T07:24:29.284Z,100381.38
2022-08-26T07:27:00.087Z,100381.66
2022-08-26T07:29:28.638Z,100377.56
2022-08-26T07:31:56.305Z,100374.03
2022-08-26T07:34:25.012Z,100374.78
2022-08-26T07:36:54.019Z,100372.03
2022-08-26T07:39:23.103Z,100377.19
2022-08-26T07:41:52.145Z,100372.00
2022-08-26T07:44:20.122Z,100381.22
2022-08-26T07:46:53.155Z,100376.53
2022-08-26T07:49:21.785Z,100375.97
2022-08-26T07:51:49.724Z,100382.72
2022-08-26T07:54:17.749Z,100377.22
2022-08-26T07:56:48.427Z,100373.94
2022-08-26T07:59:18.184Z,100376.81
2022-08-26T08:01:46.682Z,100375.13
2022-08-26T08:04:14.646Z,100384.03
2022-08-26T08:06:43.981Z,100374.16
2022-08-26T08:09:12.435Z,100372.91
2022-08-26T08:11:41.337Z,100382.97
2022-08-26T08:14:11.732Z,100370.00
2022-08-26T08:16:45.831Z,100376.19
2022-08-26T08:19:14.500Z,100375.28
2022-08-26T08:21:42.235Z,100378.53
2022-08-26T08:24:10.887Z,100380.47
2022-08-26T08:26:38.375Z,100375.97
2022-08-26T08:29:08.702Z,100378.69
2022-08-26T08:34:27.185Z,100370.31
2022-08-26T08:36:54.937Z,100367.44
2022-08-26T08:39:22.614Z,100366.66
2022-08-26T08:42:05.925Z,100362.88
2022-08-26T08:44:33.909Z,100370.72
2022-08-26T08:47:06.005Z,100371.91
2022-08-26T08:49:35.537Z,100369.00
2022-08-26T08:52:07.443Z,100365.38
2022-08-26T08:54:35.008Z,100360.03
2022-08-26T08:57:06.781Z,100366.88
2022-08-26T08:59:38.435Z,100363.59
2022-08-26T09:02:12.100Z,100355.28
2022-08-26T09:05:07.203Z,100367.50
2022-08-26T09:07:38.565Z,100357.44
2022-08-26T09:10:18.734Z,100357.75
2022-08-26T09:12:46.968Z,100354.66
2022-08-26T09:15:18.553Z,100356.06
2022-08-26T09:17:52.579Z,100358.72
2022-08-26T09:20:27.833Z,100356.88
2022-08-26T09:22:57.831Z,100355.94
2022-08-26T09:25:25.547Z,100352.59
2022-08-26T09:27:54.303Z,100344.75
2022-08-26T09:30:26.814Z,100343.75
2022-08-26T09:33:02.763Z,100353.56
2022-08-26T09:35:38.274Z,100348.09
2022-08-26T09:38:22.596Z,100353.34
2022-08-26T09:40:59.110Z,100344.00
2022-08-26T09:43:28.467Z,100356.41
2022-08-26T09:46:11.950Z,100348.47
2022-08-26T09:48:41.006Z,100338.38
2022-08-26T09:51:28.690Z,100337.28
2022-08-26T09:53:58.102Z,100337.09
2022-08-26T09:56:28.451Z,100337.53
2022-08-26T09:58:57.019Z,100337.59
2022-08-26T10:01:32.892Z,100334.75
2022-08-26T10:04:10.236Z,100330.50
2022-08-26T10:06:42.676Z,100325.56
2022-08-26T10:09:13.708Z,100320.53
2022-08-26T10:11:44.814Z,100317.09
2022-08-26T10:14:18.340Z,100317.06
2022-08-26T10:16:50.262Z,100315.38
2022-08-26T10:19:20.983Z,100314.75
2022-08-26T10:21:54.871Z,100315.13
2022-08-26T10:24:24.928Z,100309.50
2022-08-26T10:27:01.151Z,100314.34
2022-08-26T10:29:34.207Z,100304.19
2022-08-26T10:32:04.564Z,100302.50
2022-08-26T10:34:32.662Z,100300.25
2022-08-26T10:37:16.606Z,100297.22
2022-08-26T10:40:14.274Z,100304.03
2022-08-26T10:43:21.435Z,100295.69
2022-08-26T10:45:52.787Z,100290.72
2022-08-26T10:48:24.519Z,100290.81
2022-08-26T10:50:52.631Z,100292.13
2022-08-26T10:53:28.449Z,100291.06
2022-08-26T10:56:05.399Z,100296.41
2022-08-26T10:58:52.354Z,100298.19
2022-08-26T11:01:45.546Z,100296.41
2022-08-26T11:04:28.301Z,100295.97
2022-08-26T11:07:33.825Z,100298.59
2022-08-26T11:10:04.096Z,100279.91
2022-08-26T11:12:52.589Z,100296.44
2022-08-26T11:16:22.921Z,100289.00
2022-08-26T11:20:00.078Z,100284.75
2022-08-26T11:24:26.710Z,100291.28
2022-08-26T11:26:37.732Z,100289.06
2022-08-26T11:30:35.312Z,100278.41
2022-08-26T11:33:28.631Z,100281.69
2022-08-26T11:36:12.291Z,100266.94
2022-08-26T11:39:38.439Z,100266.31
2022-08-26T11:42:42.825Z,100271.53
2022-08-26T11:46:18.268Z,100258.91
2022-08-26T12:11:09.044Z,100231.53
2022-08-26T12:21:35.317Z,100221.25
2022-08-26T12:38:57.599Z,100197.75
2022-08-26T12:42:18.698Z,100198.50
2022-08-26T12:45:36.034Z,100186.50
2022-08-26T12:48:47.552Z,100185.06
2022-08-26T12:51:59.541Z,100166.09
2022-08-26T12:55:08.805Z,100170.69
2022-08-26T12:58:20.678Z,100168.03
2022-08-26T13:01:04.247Z,100173.03
2022-08-26T13:06:54.625Z,100169.22
2022-08-26T13:09:37.080Z,100163.59
2022-08-26T13:12:35.667Z,100160.03
2022-08-26T13:15:16.443Z,100157.34
2022-08-26T13:18:15.901Z,100150.81
2022-08-26T13:21:37.296Z,100144.75
2022-08-26T13:24:07.192Z,100137.56
2022-08-26T13:26:35.127Z,100134.41
2022-08-26T13:29:05.287Z,100134.75
2022-08-26T13:31:37.960Z,100133.44
2022-08-26T13:34:06.955Z,100120.41
2022-08-26T13:36:36.557Z,100116.66
2022-08-26T13:39:35.501Z,100115.38
2022-08-26T13:42:15.020Z,100111.28
2022-08-26T13:44:50.715Z,100101.28
2022-08-26T13:47:50.246Z,100099.38
2022-08-26T13:50:18.182Z,100106.81
2022-08-26T13:52:46.245Z,100125.69
2022-08-26T13:55:13.758Z,100146.09
2022-08-26T13:57:41.282Z,100185.75
2022-08-26T14:00:11.287Z,100169.47
2022-08-26T14:02:40.135Z,100163.03
2022-08-26T14:05:08.562Z,100173.38
2022-08-26T14:07:36.024Z,100175.25
2022-08-26T14:10:03.745Z,100176.81
2022-08-26T14:12:31.216Z,100177.28
2022-08-26T14:14:58.716Z,100180.56
2022-08-26T14:17:26.568Z,100179.66
2022-08-26T14:19:59.619Z,100183.25
2022-08-26T14:22:27.163Z,100192.19
2022-08-26T14:24:55.002Z,100195.44
2022-08-26T14:27:22.465Z,100202.16
2022-08-26T14:29:50.064Z,100196.84
2022-08-26T14:32:23.527Z,100197.88
2022-08-26T14:34:51.842Z,100199.38
2022-08-26T14:37:21.220Z,100189.56
2022-08-26T14:39:49.167Z,100188.28
2022-08-26T14:42:18.343Z,100190.81
2022-08-26T14:44:47.292Z,100178.28
2022-08-26T14:47:14.812Z,100173.66
2022-08-26T14:49:42.358Z,100166.81
2022-08-26T14:52:09.879Z,100170.19
2022-08-26T14:54:37.843Z,100173.31
2022-08-26T14:57:07.847Z,100173.19
2022-08-26T14:59:38.231Z,100170.75
2022-08-26T15:02:06.441Z,100169.34
2022-08-26T15:04:34.461Z,100160.66
2022-08-26T15:07:03.165Z,100158.06
2022-08-26T15:09:32.109Z,100164.28
2022-08-26T15:12:01.284Z,100153.38
2022-08-26T15:14:32.799Z,100170.97
2022-08-26T15:17:01.644Z,100167.06
2022-08-26T15:19:32.030Z,100177.06
2022-08-26T15:22:00.513Z,100183.16
2022-08-26T15:24:29.207Z,100182.34
2022-08-26T15:26:57.305Z,100167.84
2022-08-26T15:29:26.856Z,100181.38
2022-08-26T15:31:55.259Z,100175.88
2022-08-26T15:34:25.149Z,100173.44
2022-08-26T15:36:52.753Z,100184.53
2022-08-26T15:39:20.818Z,100180.50
2022-08-26T15:41:48.305Z,100189.56
2022-08-26T15:44:17.646Z,100199.34
2022-08-26T17:02:10.617Z,100242.81
2022-08-26T17:04:46.216Z,100251.84
2022-08-26T17:07:16.833Z,100246.13
2022-08-26T17:09:44.372Z,100247.88
2022-08-26T17:12:11.948Z,100244.69
2022-08-26T17:14:39.447Z,100248.53
2022-08-26T17:17:08.701Z,100252.94
2022-08-26T17:19:39.659Z,100252.53
2022-08-26T17:22:08.778Z,100265.63
2022-08-26T17:24:37.238Z,100258.53
2022-08-26T17:27:05.156Z,100263.00
2022-08-26T17:29:32.651Z,100256.41
2022-08-26T17:32:00.584Z,100251.56
2022-08-26T17:34:29.501Z,100251.09
2022-08-26T17:36:57.014Z,100253.50
2022-08-26T17:39:24.492Z,100251.63
2022-08-26T17:41:51.982Z,100251.06
2022-08-26T17:44:19.440Z,100259.25
2022-08-26T17:46:46.980Z,100264.97
2022-08-26T17:49:14.560Z,100261.13
2022-08-26T17:51:43.407Z,100266.88
2022-08-26T17:54:10.952Z,100266.66
2022-08-26T17:56:38.441Z,100274.31
2022-08-26T17:59:15.863Z,100265.88
2022-08-26T18:01:44.520Z,100274.53
2022-08-26T18:04:13.518Z,100274.03
2022-08-26T18:06:43.550Z,100272.72
2022-08-26T18:09:11.503Z,100271.13
2022-08-26T18:11:39.226Z,100284.78
2022-08-26T18:14:06.944Z,100287.22
2022-08-26T18:16:38.284Z,100279.03
2022-08-26T18:19:06.967Z,100281.25
2022-08-26T18:21:36.140Z,100277.75
2022-08-26T18:25:33.338Z,100279.03
2022-08-26T18:27:36.228Z,100280.34
2022-08-26T18:30:07.876Z,100278.41
2022-08-26T18:32:35.955Z,100281.72
2022-08-26T18:35:11.164Z,100282.38
2022-08-26T18:37:50.076Z,100295.63
2022-08-26T18:40:21.164Z,100282.22
2022-08-26T18:42:54.213Z,100279.00
2022-08-26T18:45:35.232Z,100289.94
2022-08-26T18:48:30.219Z,100288.34
2022-08-26T18:51:00.490Z,100292.97
2022-08-26T18:53:28.501Z,100291.09
2022-08-26T18:55:57.966Z,100300.31
2022-08-26T18:58:25.856Z,100303.59
2022-08-26T19:00:55.941Z,100299.63
2022-08-26T19:03:25.533Z,100302.59
2022-08-26T19:05:54.875Z,100302.47
2022-08-26T19:14:34.104Z,100328.06
2022-08-26T19:17:15.067Z,100326.75
2022-08-26T19:26:04.958Z,100349.34
2022-08-26T19:29:14.458Z,100350.16
2022-08-26T19:31:45.188Z,100354.28
2022-08-26T19:34:17.487Z,100350.19
2022-08-26T19:36:53.033Z,100363.28
2022-08-26T19:39:22.563Z,100363.06
2022-08-26T19:41:50.318Z,100373.38
2022-08-26T19:44:35.146Z,100376.94
2022-08-26T19:47:03.724Z,100379.91
2022-08-26T19:49:31.834Z,100382.69
2022-08-26T19:52:00.083Z,100381.00
2022-08-26T19:54:28.205Z,100367.16
2022-08-26T19:56:56.158Z,100372.88
2022-08-26T19:59:26.549Z,100360.59
2022-08-26T20:02:01.254Z,100381.59
2022-08-26T20:04:33.186Z,100378.88
2022-08-26T22:18:25.039Z,100412.00
2022-08-26T22:21:20.767Z,100419.31
2022-08-26T22:27:12.503Z,100426.53
2022-08-26T22:30:05.171Z,100433.28
2022-08-26T22:33:08.634Z,100425.69
2022-08-26T22:35:40.995Z,100432.47
2022-08-26T22:38:13.823Z,100437.66
2022-08-26T22:40:52.101Z,100430.31
2022-08-26T22:43:27.653Z,100428.91
2022-08-26T22:45:57.993Z,100425.88
2022-08-26T22:48:28.260Z,100438.63
2022-08-26T22:51:00.399Z,100438.59
2022-08-26T22:53:47.199Z,100437.00
2022-08-26T22:56:44.044Z,100445.41
2022-08-26T22:59:29.303Z,100439.72
2022-08-26T23:02:09.367Z,100436.75
2022-08-26T23:04:56.117Z,100433.72
2022-08-26T23:07:24.303Z,100439.66
2022-08-26T23:10:14.013Z,100446.19
2022-08-26T23:12:52.351Z,100443.47
2022-08-26T23:15:30.689Z,100448.38
2022-08-26T23:18:10.225Z,100437.00
2022-08-26T23:21:31.579Z,100442.16
2022-08-26T23:23:47.579Z,100439.75
2022-08-26T23:26:21.565Z,100443.78
2022-08-26T23:28:56.944Z,100444.03
2022-08-26T23:31:27.520Z,100445.31
2022-08-26T23:34:16.929Z,100453.19
2022-08-26T23:36:50.158Z,100441.84
2022-08-26T23:39:24.496Z,100443.53
2022-08-26T23:42:58.534Z,100443.75
2022-08-26T23:45:21.974Z,100441.06
2022-08-26T23:48:04.404Z,100450.88
2022-08-26T23:50:48.163Z,100451.41
2022-08-26T23:53:24.866Z,100437.84
2022-08-26T23:56:07.845Z,100446.44
2022-08-26T23:58:35.346Z,100444.53
